TPC202 EBCI-EBCI
Flight info
| Callsign | TPC202 |
|---|---|
| Flight time | N/A |
| Altitude | 5000 |
| Route | EBCI ELLX EBCI |
| Aircraft | C172/L-SDFG/C |
Departure
| Time | 2026-05-06 15:51 |
|---|---|
| Airport | Brussels South Charleroi Airport (EBCI) |
Arrival
| Time | N/A |
|---|---|
| Airport | Brussels South Charleroi Airport (EBCI) |
| Time | Latitude | Longitude | Altitude | Speed | Heading |
|---|---|---|---|---|---|
| 2026-05-06 15:33 | 50.45974 | 4.45855 | 597 ft | 0 kts | 65° |
| 2026-05-06 15:46 | 50.45974 | 4.45856 | 597 ft | 0 kts | 62° |
| 2026-05-06 15:47 | 50.45989 | 4.45878 | 596 ft | 1 kts | 340° |
| 2026-05-06 15:47 | 50.46030 | 4.45855 | 597 ft | 10 kts | 13° |
| 2026-05-06 15:47 | 50.46051 | 4.45984 | 595 ft | 17 kts | 81° |
| 2026-05-06 15:47 | 50.46093 | 4.46187 | 591 ft | 15 kts | 59° |
| 2026-05-06 15:48 | 50.46117 | 4.46236 | 590 ft | 11 kts | 38° |
| 2026-05-06 15:48 | 50.46151 | 4.46251 | 589 ft | 0 kts | 353° |
| 2026-05-06 15:49 | 50.46215 | 4.46194 | 590 ft | 18 kts | 313° |
| 2026-05-06 15:50 | 50.46172 | 4.45929 | 595 ft | 40 kts | 247° |
| 2026-05-06 15:50 | 50.45999 | 4.45334 | 623 ft | 71 kts | 246° |
| 2026-05-06 15:50 | 50.45817 | 4.44592 | 769 ft | 73 kts | 248° |
| 2026-05-06 15:50 | 50.45606 | 4.43862 | 936 ft | 73 kts | 244° |
| 2026-05-06 15:51 | 50.45287 | 4.43309 | 1110 ft | 71 kts | 182° |
| 2026-05-06 15:51 | 50.44927 | 4.43809 | 1190 ft | 81 kts | 111° |
| 2026-05-06 15:51 | 50.44631 | 4.44586 | 1295 ft | 89 kts | 117° |
| 2026-05-06 15:51 | 50.44333 | 4.45345 | 1535 ft | 81 kts | 115° |
| 2026-05-06 15:52 | 50.43953 | 4.46060 | 1678 ft | 89 kts | 144° |
| 2026-05-06 15:52 | 50.43339 | 4.46220 | 1842 ft | 91 kts | 181° |
| 2026-05-06 15:52 | 50.42697 | 4.46177 | 2035 ft | 90 kts | 179° |
| 2026-05-06 15:52 | 50.42028 | 4.46128 | 2129 ft | 101 kts | 187° |
| 2026-05-06 15:53 | 50.41312 | 4.45840 | 2179 ft | 112 kts | 195° |
| 2026-05-06 15:53 | 50.40541 | 4.45495 | 2276 ft | 114 kts | 191° |
| 2026-05-06 15:53 | 50.39735 | 4.45303 | 2333 ft | 120 kts | 185° |
| 2026-05-06 15:53 | 50.38887 | 4.45183 | 2325 ft | 128 kts | 183° |
| 2026-05-06 15:54 | 50.37971 | 4.45171 | 2272 ft | 131 kts | 174° |
| 2026-05-06 15:54 | 50.37080 | 4.45320 | 2315 ft | 126 kts | 172° |
| 2026-05-06 15:54 | 50.36231 | 4.45578 | 2358 ft | 124 kts | 162° |
| 2026-05-06 15:54 | 50.35412 | 4.45967 | 2419 ft | 122 kts | 159° |
| 2026-05-06 15:55 | 50.34614 | 4.46387 | 2446 ft | 121 kts | 155° |
| 2026-05-06 15:55 | 50.33814 | 4.46841 | 2471 ft | 121 kts | 154° |
| 2026-05-06 15:55 | 50.33064 | 4.47322 | 2607 ft | 113 kts | 150° |
| 2026-05-06 15:55 | 50.32348 | 4.47876 | 2656 ft | 114 kts | 145° |
| 2026-05-06 15:56 | 50.31875 | 4.48800 | 2672 ft | 109 kts | 99° |
| 2026-05-06 15:56 | 50.31830 | 4.49977 | 2634 ft | 109 kts | 77° |
| 2026-05-06 15:56 | 50.31950 | 4.51198 | 2537 ft | 117 kts | 72° |
| 2026-05-06 15:56 | 50.32120 | 4.52450 | 2390 ft | 123 kts | 72° |
| 2026-05-06 15:57 | 50.32294 | 4.53755 | 2112 ft | 122 kts | 76° |
| 2026-05-06 15:57 | 50.32406 | 4.55034 | 1881 ft | 114 kts | 78° |
| 2026-05-06 15:57 | 50.32480 | 4.56219 | 1777 ft | 107 kts | 82° |
| 2026-05-06 15:57 | 50.32515 | 4.57347 | 1733 ft | 104 kts | 82° |
| 2026-05-06 15:58 | 50.32603 | 4.58453 | 1733 ft | 103 kts | 73° |
| 2026-05-06 15:58 | 50.32729 | 4.59546 | 1751 ft | 101 kts | 76° |
| 2026-05-06 15:58 | 50.32832 | 4.60633 | 1770 ft | 98 kts | 76° |
| 2026-05-06 15:58 | 50.32953 | 4.61682 | 1735 ft | 103 kts | 75° |
| 2026-05-06 15:59 | 50.33100 | 4.62812 | 1697 ft | 110 kts | 70° |
| 2026-05-06 15:59 | 50.33290 | 4.63963 | 1726 ft | 109 kts | 70° |
| 2026-05-06 15:59 | 50.33490 | 4.65084 | 1808 ft | 101 kts | 67° |
| 2026-05-06 15:59 | 50.33740 | 4.66079 | 1911 ft | 98 kts | 60° |
| 2026-05-06 16:00 | 50.33991 | 4.67019 | 2083 ft | 87 kts | 67° |
| 2026-05-06 16:00 | 50.34181 | 4.67959 | 2106 ft | 95 kts | 65° |
| 2026-05-06 16:00 | 50.34412 | 4.68963 | 2129 ft | 101 kts | 63° |
| 2026-05-06 16:00 | 50.34667 | 4.70013 | 2157 ft | 105 kts | 64° |
| 2026-05-06 16:01 | 50.34954 | 4.71068 | 2153 ft | 107 kts | 60° |
| 2026-05-06 16:01 | 50.35231 | 4.72169 | 2144 ft | 109 kts | 65° |
| 2026-05-06 16:01 | 50.35498 | 4.73352 | 1971 ft | 119 kts | 67° |
| 2026-05-06 16:01 | 50.35748 | 4.74601 | 1739 ft | 122 kts | 70° |
| 2026-05-06 16:02 | 50.35938 | 4.75875 | 1556 ft | 117 kts | 74° |
| 2026-05-06 16:02 | 50.36048 | 4.77076 | 1490 ft | 107 kts | 79° |
| 2026-05-06 16:02 | 50.36117 | 4.78178 | 1519 ft | 99 kts | 79° |
| 2026-05-06 16:02 | 50.36171 | 4.79264 | 1482 ft | 99 kts | 80° |
| 2026-05-06 16:03 | 50.36230 | 4.80370 | 1389 ft | 103 kts | 81° |
| 2026-05-06 16:03 | 50.36262 | 4.81444 | 1432 ft | 95 kts | 82° |
| 2026-05-06 16:03 | 50.36253 | 4.82471 | 1462 ft | 95 kts | 87° |
| 2026-05-06 16:03 | 50.36185 | 4.83518 | 1512 ft | 98 kts | 93° |
| 2026-05-06 16:04 | 50.36099 | 4.84610 | 1541 ft | 102 kts | 89° |
| 2026-05-06 16:04 | 50.36021 | 4.85750 | 1542 ft | 109 kts | 92° |
| 2026-05-06 16:04 | 50.35879 | 4.86934 | 1568 ft | 111 kts | 98° |
| 2026-05-06 16:04 | 50.35681 | 4.88098 | 1593 ft | 112 kts | 101° |
| 2026-05-06 16:05 | 50.35472 | 4.89274 | 1556 ft | 117 kts | 101° |
| 2026-05-06 16:05 | 50.35234 | 4.90491 | 1455 ft | 118 kts | 104° |
| 2026-05-06 16:05 | 50.35012 | 4.91292 | 1532 ft | 109 kts | 112° |
| 2026-05-06 16:05 | 50.34706 | 4.91871 | 1651 ft | 97 kts | 136° |
| 2026-05-06 16:06 | 50.34171 | 4.92563 | 1632 ft | 102 kts | 140° |
| 2026-05-06 16:06 | 50.33592 | 4.93226 | 1653 ft | 101 kts | 145° |
| 2026-05-06 16:06 | 50.33000 | 4.93802 | 1666 ft | 101 kts | 149° |
| 2026-05-06 16:06 | 50.32402 | 4.94408 | 1682 ft | 101 kts | 144° |
| 2026-05-06 16:07 | 50.31811 | 4.95034 | 1718 ft | 104 kts | 144° |
| 2026-05-06 16:07 | 50.31199 | 4.95679 | 1750 ft | 105 kts | 143° |
| 2026-05-06 16:07 | 50.30661 | 4.96480 | 1819 ft | 103 kts | 128° |
| 2026-05-06 16:07 | 50.30234 | 4.97412 | 1870 ft | 104 kts | 124° |
| 2026-05-06 16:08 | 50.29798 | 4.98311 | 1899 ft | 106 kts | 127° |
| 2026-05-06 16:08 | 50.29319 | 4.99212 | 1929 ft | 106 kts | 129° |
| 2026-05-06 16:08 | 50.28823 | 5.00052 | 1936 ft | 109 kts | 133° |
| 2026-05-06 16:08 | 50.28267 | 5.00909 | 1938 ft | 111 kts | 135° |
| 2026-05-06 16:09 | 50.27708 | 5.01684 | 2018 ft | 106 kts | 138° |
| 2026-05-06 16:09 | 50.27139 | 5.02466 | 2013 ft | 111 kts | 136° |
| 2026-05-06 16:09 | 50.26545 | 5.03257 | 2008 ft | 112 kts | 142° |
| 2026-05-06 16:09 | 50.25960 | 5.04045 | 2041 ft | 110 kts | 143° |
| 2026-05-06 16:10 | 50.25279 | 5.04631 | 2051 ft | 111 kts | 154° |
| 2026-05-06 16:10 | 50.24547 | 5.05051 | 2051 ft | 112 kts | 164° |
| 2026-05-06 16:10 | 50.23812 | 5.05348 | 2135 ft | 107 kts | 165° |
| 2026-05-06 16:10 | 50.23072 | 5.05618 | 2129 ft | 111 kts | 167° |
| 2026-05-06 16:11 | 50.22317 | 5.05853 | 2179 ft | 108 kts | 167° |
| 2026-05-06 16:11 | 50.21572 | 5.06068 | 2212 ft | 108 kts | 169° |
| 2026-05-06 16:11 | 50.20788 | 5.06271 | 2087 ft | 120 kts | 172° |
| 2026-05-06 16:11 | 50.19947 | 5.06452 | 1973 ft | 124 kts | 172° |
| 2026-05-06 16:12 | 50.19104 | 5.06595 | 1951 ft | 120 kts | 174° |
| 2026-05-06 16:12 | 50.18284 | 5.06720 | 1939 ft | 118 kts | 173° |
| 2026-05-06 16:12 | 50.17462 | 5.06778 | 1926 ft | 116 kts | 185° |
| 2026-05-06 16:12 | 50.16700 | 5.06339 | 1869 ft | 119 kts | 209° |
| 2026-05-06 16:13 | 50.16014 | 5.05680 | 1922 ft | 112 kts | 211° |
| 2026-05-06 16:13 | 50.15356 | 5.05030 | 1987 ft | 108 kts | 210° |
| 2026-05-06 16:13 | 50.14671 | 5.04571 | 2016 ft | 109 kts | 196° |
| 2026-05-06 16:13 | 50.13915 | 5.04388 | 2032 ft | 110 kts | 180° |
| 2026-05-06 16:14 | 50.13164 | 5.04435 | 2098 ft | 107 kts | 175° |
| 2026-05-06 16:14 | 50.12416 | 5.04547 | 2121 ft | 109 kts | 172° |
| 2026-05-06 16:14 | 50.11661 | 5.04653 | 2162 ft | 108 kts | 176° |
| 2026-05-06 16:14 | 50.10907 | 5.04748 | 2192 ft | 109 kts | 172° |
| 2026-05-06 16:15 | 50.10148 | 5.04930 | 2223 ft | 109 kts | 166° |
| 2026-05-06 16:15 | 50.09437 | 5.05287 | 2285 ft | 107 kts | 154° |
| 2026-05-06 16:15 | 50.08802 | 5.05882 | 2335 ft | 107 kts | 142° |
| 2026-05-06 16:15 | 50.08218 | 5.06624 | 2340 ft | 111 kts | 138° |
| 2026-05-06 16:16 | 50.07620 | 5.07424 | 2332 ft | 112 kts | 139° |
| 2026-05-06 16:16 | 50.07033 | 5.08196 | 2354 ft | 112 kts | 138° |
| 2026-05-06 16:16 | 50.06466 | 5.09023 | 2367 ft | 112 kts | 133° |
| 2026-05-06 16:16 | 50.05941 | 5.09899 | 2414 ft | 110 kts | 131° |
| 2026-05-06 16:17 | 50.05436 | 5.10807 | 2417 ft | 112 kts | 129° |
| 2026-05-06 16:17 | 50.04942 | 5.11736 | 2458 ft | 110 kts | 127° |
| 2026-05-06 16:17 | 50.04487 | 5.12688 | 2467 ft | 111 kts | 124° |
| 2026-05-06 16:17 | 50.04064 | 5.13706 | 2489 ft | 111 kts | 122° |
| 2026-05-06 16:18 | 50.03629 | 5.14726 | 2469 ft | 114 kts | 121° |
| 2026-05-06 16:18 | 50.03194 | 5.15758 | 2473 ft | 114 kts | 122° |
| 2026-05-06 16:18 | 50.02764 | 5.16800 | 2478 ft | 114 kts | 122° |
| 2026-05-06 16:18 | 50.02326 | 5.17811 | 2513 ft | 111 kts | 124° |
| 2026-05-06 16:19 | 50.01867 | 5.18778 | 2513 ft | 113 kts | 125° |
| 2026-05-06 16:19 | 50.01392 | 5.19753 | 2516 ft | 114 kts | 126° |
| 2026-05-06 16:19 | 50.00917 | 5.20784 | 2423 ft | 120 kts | 124° |
| 2026-05-06 16:19 | 50.00436 | 5.21835 | 2405 ft | 118 kts | 124° |
| 2026-05-06 16:20 | 49.99988 | 5.22882 | 2403 ft | 116 kts | 122° |
| 2026-05-06 16:20 | 49.99571 | 5.23965 | 2382 ft | 117 kts | 120° |
| 2026-05-06 16:20 | 49.99154 | 5.25043 | 2363 ft | 116 kts | 123° |
| 2026-05-06 16:20 | 49.98600 | 5.25891 | 2443 ft | 109 kts | 145° |
| 2026-05-06 16:21 | 49.97974 | 5.26532 | 2530 ft | 105 kts | 144° |
| 2026-05-06 16:21 | 49.97348 | 5.27138 | 2565 ft | 107 kts | 148° |
| 2026-05-06 16:21 | 49.96699 | 5.27677 | 2625 ft | 106 kts | 151° |
| 2026-05-06 16:21 | 49.96044 | 5.28222 | 2631 ft | 110 kts | 151° |
| 2026-05-06 16:22 | 49.95334 | 5.28800 | 2564 ft | 116 kts | 152° |
| 2026-05-06 16:22 | 49.94608 | 5.29346 | 2603 ft | 112 kts | 153° |
| 2026-05-06 16:22 | 49.93942 | 5.29904 | 2699 ft | 106 kts | 146° |
| 2026-05-06 16:22 | 49.93367 | 5.30626 | 2700 ft | 111 kts | 135° |
| 2026-05-06 16:23 | 49.92793 | 5.31467 | 2679 ft | 114 kts | 135° |
| 2026-05-06 16:23 | 49.92270 | 5.32280 | 2816 ft | 104 kts | 133° |
| 2026-05-06 16:23 | 49.91745 | 5.33148 | 2798 ft | 109 kts | 131° |
| 2026-05-06 16:23 | 49.91264 | 5.34036 | 2872 ft | 107 kts | 127° |
| 2026-05-06 16:24 | 49.90798 | 5.34958 | 2838 ft | 114 kts | 125° |
| 2026-05-06 16:24 | 49.90293 | 5.35992 | 2701 ft | 122 kts | 125° |
| 2026-05-06 16:24 | 49.89807 | 5.37064 | 2667 ft | 120 kts | 124° |
| 2026-05-06 16:24 | 49.89337 | 5.38154 | 2608 ft | 121 kts | 121° |
| 2026-05-06 16:25 | 49.88923 | 5.39206 | 2563 ft | 121 kts | 119° |
| 2026-05-06 16:25 | 49.88511 | 5.40337 | 2515 ft | 121 kts | 119° |
| 2026-05-06 16:25 | 49.88192 | 5.41517 | 2535 ft | 116 kts | 103° |
| 2026-05-06 16:25 | 49.88024 | 5.42690 | 2503 ft | 117 kts | 101° |
| 2026-05-06 16:26 | 49.87850 | 5.43926 | 2488 ft | 117 kts | 100° |
| 2026-05-06 16:26 | 49.87679 | 5.45153 | 2469 ft | 117 kts | 102° |
| 2026-05-06 16:26 | 49.87516 | 5.46382 | 2449 ft | 117 kts | 99° |
| 2026-05-06 16:26 | 49.87452 | 5.47635 | 2425 ft | 117 kts | 88° |
| 2026-05-06 16:27 | 49.87532 | 5.48885 | 2408 ft | 117 kts | 79° |
| 2026-05-06 16:27 | 49.87746 | 5.50107 | 2384 ft | 116 kts | 71° |
| 2026-05-06 16:27 | 49.87993 | 5.51303 | 2355 ft | 115 kts | 71° |
| 2026-05-06 16:27 | 49.88206 | 5.52489 | 2336 ft | 115 kts | 73° |
| 2026-05-06 16:28 | 49.88457 | 5.53644 | 2351 ft | 112 kts | 70° |
| 2026-05-06 16:28 | 49.88693 | 5.54806 | 2341 ft | 112 kts | 68° |
| 2026-05-06 16:28 | 49.88982 | 5.55937 | 2387 ft | 108 kts | 68° |
| 2026-05-06 16:28 | 49.89118 | 5.56554 | 2412 ft | 107 kts | 71° |
| 2026-05-06 16:29 | 49.89138 | 5.56659 | 2433 ft | 106 kts | 65° |
| 2026-05-06 16:29 | 49.89326 | 5.57802 | 2357 ft | 109 kts | 70° |
| 2026-05-06 16:29 | 49.89476 | 5.58979 | 2149 ft | 116 kts | 73° |
| 2026-05-06 16:29 | 49.89597 | 5.60175 | 2134 ft | 105 kts | 83° |
| 2026-05-06 16:30 | 49.89419 | 5.61261 | 2168 ft | 104 kts | 103° |
| 2026-05-06 16:30 | 49.89257 | 5.61934 | 2241 ft | 97 kts | 94° |
| 2026-05-06 16:30 | 49.88977 | 5.63304 | 2320 ft | 94 kts | 98° |
| 2026-05-06 16:30 | 49.88621 | 5.64194 | 2432 ft | 94 kts | 128° |
| 2026-05-06 16:31 | 49.88082 | 5.64815 | 2504 ft | 102 kts | 139° |
| 2026-05-06 16:31 | 49.87588 | 5.65597 | 2524 ft | 105 kts | 110° |
| 2026-05-06 16:31 | 49.87636 | 5.66503 | 2656 ft | 80 kts | 42° |
| 2026-05-06 16:31 | 49.88025 | 5.67025 | 2697 ft | 82 kts | 28° |
| 2026-05-06 16:32 | 49.88563 | 5.67321 | 2674 ft | 86 kts | 355° |
| 2026-05-06 16:32 | 49.89179 | 5.67274 | 2582 ft | 96 kts | 352° |
| 2026-05-06 16:32 | 49.89751 | 5.66982 | 2789 ft | 81 kts | 327° |
| 2026-05-06 16:32 | 49.90170 | 5.66386 | 2791 ft | 87 kts | 320° |
| 2026-05-06 16:33 | 49.90589 | 5.65611 | 2695 ft | 104 kts | 298° |
| 2026-05-06 16:33 | 49.90861 | 5.64613 | 2700 ft | 99 kts | 306° |
| 2026-05-06 16:33 | 49.91103 | 5.63963 | 2574 ft | 109 kts | 302° |
| 2026-05-06 16:34 | 49.91570 | 5.62620 | 2507 ft | 109 kts | 304° |
| 2026-05-06 16:34 | 49.92024 | 5.61688 | 2404 ft | 113 kts | 312° |
| 2026-05-06 16:34 | 49.92521 | 5.60718 | 2341 ft | 113 kts | 307° |
| 2026-05-06 16:34 | 49.93051 | 5.59880 | 2336 ft | 110 kts | 320° |
| 2026-05-06 16:35 | 49.93732 | 5.59587 | 2363 ft | 104 kts | 25° |
| 2026-05-06 16:35 | 49.93761 | 5.60557 | 2258 ft | 108 kts | 138° |
| 2026-05-06 16:35 | 49.93096 | 5.61049 | 2262 ft | 106 kts | 165° |
| 2026-05-06 16:35 | 49.92374 | 5.61198 | 2254 ft | 105 kts | 177° |
| 2026-05-06 16:36 | 49.91628 | 5.61172 | 2246 ft | 105 kts | 180° |
| 2026-05-06 16:36 | 49.90907 | 5.61285 | 2244 ft | 105 kts | 169° |
| 2026-05-06 16:36 | 49.90196 | 5.61613 | 2224 ft | 106 kts | 156° |
| 2026-05-06 16:36 | 49.89609 | 5.62272 | 2205 ft | 106 kts | 131° |
| 2026-05-06 16:37 | 49.89184 | 5.63228 | 2172 ft | 107 kts | 118° |
| 2026-05-06 16:37 | 49.88941 | 5.64299 | 2200 ft | 104 kts | 104° |
| 2026-05-06 16:37 | 49.88749 | 5.65323 | 2167 ft | 106 kts | 106° |
| 2026-05-06 16:37 | 49.88716 | 5.65498 | 2174 ft | 107 kts | 99° |
| 2026-05-06 16:38 | 49.88547 | 5.66739 | 1824 ft | 126 kts | 84° |
| 2026-05-06 16:38 | 49.88572 | 5.68005 | 1802 ft | 103 kts | 70° |
| 2026-05-06 16:38 | 49.88779 | 5.69059 | 1684 ft | 95 kts | 63° |
| 2026-05-06 16:38 | 49.88971 | 5.69992 | 1664 ft | 88 kts | 68° |
| 2026-05-06 16:39 | 49.89048 | 5.70934 | 1628 ft | 89 kts | 84° |
| 2026-05-06 16:39 | 49.89224 | 5.71709 | 1644 ft | 80 kts | 51° |
| 2026-05-06 16:39 | 49.89592 | 5.72307 | 1641 ft | 75 kts | 29° |
| 2026-05-06 16:39 | 49.89969 | 5.72843 | 1633 ft | 69 kts | 39° |
| 2026-05-06 16:40 | 49.90331 | 5.73365 | 1657 ft | 79 kts | 30° |
| 2026-05-06 16:40 | 49.90802 | 5.73906 | 1662 ft | 92 kts | 43° |
| 2026-05-06 16:40 | 49.91139 | 5.74860 | 1656 ft | 103 kts | 56° |
| 2026-05-06 16:40 | 49.91462 | 5.75870 | 1691 ft | 105 kts | 57° |
| 2026-05-06 16:41 | 49.91769 | 5.76866 | 1824 ft | 99 kts | 68° |
| 2026-05-06 16:41 | 49.91756 | 5.77971 | 1871 ft | 107 kts | 86° |
| 2026-05-06 16:41 | 49.91705 | 5.79145 | 1899 ft | 111 kts | 86° |
| 2026-05-06 16:41 | 49.91704 | 5.80366 | 1919 ft | 112 kts | 76° |
| 2026-05-06 16:42 | 49.91971 | 5.81419 | 2008 ft | 103 kts | 51° |
| 2026-05-06 16:42 | 49.92263 | 5.82495 | 1969 ft | 112 kts | 65° |
| 2026-05-06 16:42 | 49.92513 | 5.83640 | 2028 ft | 109 kts | 61° |
| 2026-05-06 16:42 | 49.92768 | 5.84739 | 2057 ft | 114 kts | 75° |
| 2026-05-06 16:43 | 49.92603 | 5.85967 | 2080 ft | 121 kts | 107° |
| 2026-05-06 16:43 | 49.92223 | 5.87152 | 2120 ft | 122 kts | 115° |
| 2026-05-06 16:43 | 49.91748 | 5.88232 | 2250 ft | 116 kts | 116° |
| 2026-05-06 16:43 | 49.91256 | 5.89189 | 2353 ft | 114 kts | 131° |
| 2026-05-06 16:44 | 49.90579 | 5.90001 | 2291 ft | 128 kts | 136° |
| 2026-05-06 16:44 | 49.89864 | 5.90824 | 2354 ft | 127 kts | 144° |
| 2026-05-06 16:44 | 49.89197 | 5.91718 | 2369 ft | 126 kts | 126° |
| 2026-05-06 16:44 | 49.88649 | 5.92751 | 2403 ft | 122 kts | 121° |
| 2026-05-06 16:45 | 49.88161 | 5.93781 | 2482 ft | 114 kts | 119° |
| 2026-05-06 16:45 | 49.87707 | 5.94755 | 2556 ft | 109 kts | 116° |
| 2026-05-06 16:45 | 49.87313 | 5.95801 | 2539 ft | 112 kts | 112° |
| 2026-05-06 16:45 | 49.86808 | 5.96741 | 2558 ft | 114 kts | 134° |
| 2026-05-06 16:46 | 49.86153 | 5.97449 | 2567 ft | 115 kts | 137° |
| 2026-05-06 16:46 | 49.85634 | 5.98356 | 2623 ft | 110 kts | 118° |
| 2026-05-06 16:46 | 49.85187 | 5.99348 | 2562 ft | 118 kts | 117° |
| 2026-05-06 16:46 | 49.84739 | 6.00490 | 2374 ft | 127 kts | 115° |
| 2026-05-06 16:47 | 49.84297 | 6.01678 | 2237 ft | 126 kts | 116° |
| 2026-05-06 16:47 | 49.83867 | 6.02861 | 2116 ft | 124 kts | 114° |
| 2026-05-06 16:47 | 49.83393 | 6.04007 | 1919 ft | 130 kts | 122° |
| 2026-05-06 16:47 | 49.82817 | 6.05107 | 1726 ft | 129 kts | 127° |
| 2026-05-06 16:48 | 49.82263 | 6.06133 | 1677 ft | 121 kts | 126° |
| 2026-05-06 16:48 | 49.81729 | 6.07136 | 1652 ft | 118 kts | 128° |
| 2026-05-06 16:48 | 49.81128 | 6.07965 | 1686 ft | 113 kts | 143° |
| 2026-05-06 16:48 | 49.80442 | 6.08496 | 1725 ft | 110 kts | 155° |
| 2026-05-06 16:49 | 49.79720 | 6.08903 | 1751 ft | 110 kts | 158° |
| 2026-05-06 16:49 | 49.78986 | 6.09320 | 1761 ft | 111 kts | 156° |
| 2026-05-06 16:49 | 49.78285 | 6.09819 | 1763 ft | 112 kts | 147° |
| 2026-05-06 16:49 | 49.77609 | 6.10387 | 1784 ft | 111 kts | 149° |
| 2026-05-06 16:50 | 49.76958 | 6.11001 | 1832 ft | 107 kts | 139° |
| 2026-05-06 16:50 | 49.76399 | 6.11765 | 1870 ft | 106 kts | 133° |
| 2026-05-06 16:50 | 49.75968 | 6.12655 | 1920 ft | 103 kts | 113° |
| 2026-05-06 16:50 | 49.75734 | 6.13302 | 1958 ft | 103 kts | 113° |
| 2026-05-06 16:51 | 49.75161 | 6.14492 | 2014 ft | 107 kts | 133° |
| 2026-05-06 16:51 | 49.74608 | 6.15284 | 2051 ft | 106 kts | 141° |
| 2026-05-06 16:51 | 49.73906 | 6.15778 | 2059 ft | 110 kts | 161° |
| 2026-05-06 16:51 | 49.73201 | 6.16140 | 2152 ft | 105 kts | 156° |
| 2026-05-06 16:52 | 49.72496 | 6.16593 | 2106 ft | 113 kts | 154° |
| 2026-05-06 16:52 | 49.71761 | 6.17077 | 2101 ft | 115 kts | 155° |
| 2026-05-06 16:52 | 49.71029 | 6.17597 | 2112 ft | 114 kts | 154° |
| 2026-05-06 16:52 | 49.70301 | 6.18122 | 2070 ft | 118 kts | 155° |
| 2026-05-06 16:53 | 49.69530 | 6.18634 | 1973 ft | 123 kts | 153° |
| 2026-05-06 16:53 | 49.68756 | 6.19135 | 1974 ft | 113 kts | 158° |
| 2026-05-06 16:53 | 49.67989 | 6.19504 | 2014 ft | 109 kts | 163° |
| 2026-05-06 16:53 | 49.67183 | 6.19816 | 1993 ft | 112 kts | 162° |
| 2026-05-06 16:54 | 49.66466 | 6.20190 | 2145 ft | 98 kts | 156° |
| 2026-05-06 16:54 | 49.65831 | 6.20670 | 2183 ft | 102 kts | 149° |
| 2026-05-06 16:54 | 49.65149 | 6.21163 | 2163 ft | 109 kts | 163° |
| 2026-05-06 16:54 | 49.64360 | 6.21310 | 2148 ft | 108 kts | 174° |
| 2026-05-06 16:55 | 49.63597 | 6.21483 | 2099 ft | 110 kts | 175° |
| 2026-05-06 16:55 | 49.62993 | 6.21234 | 2168 ft | 88 kts | 258° |
| 2026-05-06 16:55 | 49.62822 | 6.20163 | 1885 ft | 105 kts | 256° |
| 2026-05-06 16:55 | 49.62444 | 6.19132 | 1680 ft | 109 kts | 240° |
| 2026-05-06 16:56 | 49.62084 | 6.18183 | 1715 ft | 89 kts | 256° |
| 2026-05-06 16:56 | 49.62352 | 6.17895 | 1681 ft | 80 kts | 53° |
| 2026-05-06 16:56 | 49.62588 | 6.18725 | 1677 ft | 81 kts | 55° |
| 2026-05-06 16:56 | 49.62889 | 6.19528 | 1699 ft | 80 kts | 53° |
| 2026-05-06 16:57 | 49.63215 | 6.20285 | 1722 ft | 81 kts | 46° |
| 2026-05-06 16:57 | 49.63557 | 6.21009 | 1771 ft | 79 kts | 46° |
| 2026-05-06 16:57 | 49.63895 | 6.21691 | 1785 ft | 79 kts | 44° |
| 2026-05-06 16:57 | 49.64230 | 6.22436 | 1704 ft | 86 kts | 50° |
| 2026-05-06 16:58 | 49.64527 | 6.23256 | 1618 ft | 89 kts | 57° |
| 2026-05-06 16:58 | 49.64783 | 6.24104 | 1523 ft | 82 kts | 59° |
| 2026-05-06 16:58 | 49.64980 | 6.24892 | 1465 ft | 74 kts | 75° |
| 2026-05-06 16:58 | 49.64682 | 6.25493 | 1374 ft | 80 kts | 151° |
| 2026-05-06 16:59 | 49.64161 | 6.25713 | 1317 ft | 73 kts | 211° |
| 2026-05-06 16:59 | 49.64047 | 6.25054 | 1288 ft | 62 kts | 257° |
| 2026-05-06 16:59 | 49.63850 | 6.24436 | 1277 ft | 71 kts | 245° |
| 2026-05-06 16:59 | 49.63588 | 6.23711 | 1298 ft | 80 kts | 238° |
| 2026-05-06 17:00 | 49.63291 | 6.22916 | 1226 ft | 79 kts | 242° |
| 2026-05-06 17:00 | 49.63035 | 6.22224 | 1208 ft | 63 kts | 242° |
| 2026-05-06 17:00 | 49.62845 | 6.21690 | 1219 ft | 53 kts | 241° |
| 2026-05-06 17:00 | 49.62687 | 6.21242 | 1228 ft | 34 kts | 255° |
| 2026-05-06 17:01 | 49.62662 | 6.21066 | 1229 ft | 19 kts | 251° |
| 2026-05-06 17:01 | 49.62652 | 6.20826 | 1229 ft | 12 kts | 277° |
| 2026-05-06 17:01 | 49.62687 | 6.20742 | 1229 ft | 7 kts | 318° |
| 2026-05-06 17:01 | 49.62724 | 6.20727 | 1230 ft | 6 kts | 30° |
| 2026-05-06 17:02 | 49.62715 | 6.20695 | 1230 ft | 14 kts | 265° |
| 2026-05-06 17:02 | 49.62622 | 6.20503 | 1224 ft | 31 kts | 226° |
| 2026-05-06 17:02 | 49.62513 | 6.20284 | 1217 ft | 17 kts | 291° |
| 2026-05-06 17:02 | 49.62577 | 6.20221 | 1216 ft | 1 kts | 122° |